createdAt,value
2022-09-13T00:02:05.739Z,22.40
2022-09-13T00:04:37.886Z,22.40
2022-09-13T00:10:01.776Z,22.50
2022-09-13T00:12:28.252Z,22.40
2022-09-13T00:14:55.745Z,22.40
2022-09-13T00:17:25.782Z,22.40
2022-09-13T00:19:52.264Z,22.40
2022-09-13T00:22:19.804Z,22.40
2022-09-13T00:24:46.287Z,22.40
2022-09-13T00:32:53.442Z,22.40
2022-09-13T00:35:19.914Z,22.40
2022-09-13T00:37:46.403Z,22.40
2022-09-13T00:40:13.792Z,22.40
2022-09-13T00:42:40.334Z,22.40
2022-09-13T00:45:06.815Z,22.40
2022-09-13T00:47:33.314Z,22.40
2022-09-13T00:49:59.801Z,22.40
2022-09-13T00:52:26.291Z,22.40
2022-09-13T00:54:52.765Z,22.40
2022-09-13T00:57:19.257Z,22.40
2022-09-13T00:59:45.733Z,22.40
2022-09-13T01:02:14.052Z,22.40
2022-09-13T01:04:40.551Z,22.40
2022-09-13T01:07:07.031Z,22.40
2022-09-13T01:09:33.509Z,22.40
2022-09-13T01:12:01.789Z,22.40
2022-09-13T01:14:31.832Z,22.40
2022-09-13T01:16:58.303Z,22.40
2022-09-13T01:19:24.773Z,22.40
2022-09-13T01:21:51.243Z,22.40
2022-09-13T01:24:17.700Z,22.40
2022-09-13T01:26:49.876Z,22.40
2022-09-13T01:32:07.930Z,22.40
2022-09-13T01:34:34.449Z,22.50
2022-09-13T01:37:00.910Z,22.40
2022-09-13T01:39:27.375Z,22.40
2022-09-13T01:41:55.823Z,22.40
2022-09-13T01:44:25.850Z,22.40
2022-09-13T01:46:52.298Z,22.40
2022-09-13T01:49:18.939Z,22.40
2022-09-13T01:51:45.605Z,22.40
2022-09-13T01:54:12.083Z,22.40
2022-09-13T01:56:38.556Z,22.40
2022-09-13T02:01:55.465Z,22.40
2022-09-13T02:04:25.880Z,22.40
2022-09-13T02:06:56.042Z,22.40
2022-09-13T02:09:25.869Z,22.40
2022-09-13T02:11:52.349Z,22.40
2022-09-13T02:14:18.828Z,22.40
2022-09-13T02:16:45.321Z,22.40
2022-09-13T02:19:11.840Z,22.40
2022-09-13T02:21:38.314Z,22.40
2022-09-13T02:24:04.786Z,22.40
2022-09-13T02:26:43.875Z,22.40
2022-09-13T02:29:10.362Z,22.40
2022-09-13T02:31:36.850Z,22.40
2022-09-13T02:34:07.888Z,22.40
2022-09-13T02:36:44.009Z,22.40
2022-09-13T02:39:10.499Z,22.40
2022-09-13T02:41:36.987Z,22.40
2022-09-13T02:44:03.470Z,22.40
2022-09-13T02:46:29.922Z,22.40
2022-09-13T02:51:47.155Z,22.40
2022-09-13T02:54:13.644Z,22.40
2022-09-13T02:56:40.114Z,22.40
2022-09-13T02:59:06.589Z,22.40
2022-09-13T03:01:33.128Z,22.40
2022-09-13T03:03:59.624Z,22.40
2022-09-13T03:06:26.099Z,22.40
2022-09-13T03:08:52.583Z,22.40
2022-09-13T03:11:19.059Z,22.40
2022-09-13T03:13:45.545Z,22.40
2022-09-13T03:16:12.042Z,22.40
2022-09-13T03:18:44.197Z,22.40
2022-09-13T03:21:10.720Z,22.40
2022-09-13T03:23:37.948Z,22.40
2022-09-13T03:26:04.414Z,22.40
2022-09-13T03:28:31.933Z,22.30
2022-09-13T03:30:58.399Z,22.40
2022-09-13T03:33:24.867Z,22.40
2022-09-13T03:35:51.336Z,22.40
2022-09-13T03:38:17.808Z,22.40
2022-09-13T03:40:44.276Z,22.40
2022-09-13T03:43:10.763Z,22.40
2022-09-13T03:45:37.301Z,22.40
2022-09-13T03:48:03.859Z,22.40
2022-09-13T03:50:31.920Z,22.40
2022-09-13T03:52:58.415Z,22.40
2022-09-13T03:55:24.892Z,22.40
2022-09-13T03:57:51.395Z,22.40
2022-09-13T04:00:17.867Z,22.40
2022-09-13T04:02:44.330Z,22.30
2022-09-13T04:05:14.040Z,22.40
2022-09-13T04:07:40.542Z,22.30
2022-09-13T04:10:09.627Z,22.30
2022-09-13T04:12:38.291Z,22.30
2022-09-13T04:15:08.113Z,22.30
2022-09-13T04:17:34.619Z,22.30
2022-09-13T04:20:01.080Z,22.40
2022-09-13T04:22:27.577Z,22.30
2022-09-13T04:24:54.037Z,22.40
2022-09-13T04:27:20.535Z,22.30
2022-09-13T04:29:56.073Z,22.30
2022-09-13T04:32:22.573Z,22.30
2022-09-13T04:34:49.040Z,22.30
2022-09-13T04:37:15.535Z,22.30
2022-09-13T04:39:42.283Z,22.40
2022-09-13T04:42:14.018Z,22.30
2022-09-13T04:44:40.504Z,22.30
2022-09-13T04:47:07.963Z,22.30
2022-09-13T04:49:34.437Z,22.30
2022-09-13T04:52:00.904Z,22.30
2022-09-13T04:54:27.397Z,22.30
2022-09-13T04:56:53.876Z,22.30
2022-09-13T04:59:26.008Z,22.30
2022-09-13T05:01:56.206Z,22.30
2022-09-13T05:04:26.014Z,22.30
2022-09-13T05:06:56.067Z,22.30
2022-09-13T05:09:22.540Z,22.30
2022-09-13T05:11:49.982Z,22.30
2022-09-13T05:14:16.476Z,22.30
2022-09-13T05:16:42.950Z,22.30
2022-09-13T05:19:09.423Z,22.30
2022-09-13T05:21:35.900Z,22.30
2022-09-13T05:24:02.374Z,22.30
2022-09-13T05:26:28.854Z,22.30
2022-09-13T05:28:55.338Z,22.30
2022-09-13T05:31:21.875Z,22.30
2022-09-13T05:33:48.406Z,22.30
2022-09-13T05:36:14.863Z,22.30
2022-09-13T05:38:41.352Z,22.30
2022-09-13T05:41:07.834Z,22.30
2022-09-13T05:43:34.332Z,22.30
2022-09-13T05:46:00.865Z,22.30
2022-09-13T05:48:27.358Z,22.30
2022-09-13T05:50:58.462Z,22.30
2022-09-13T05:53:26.048Z,22.30
2022-09-13T05:55:52.523Z,22.30
2022-09-13T05:58:20.053Z,22.30
2022-09-13T06:00:46.526Z,22.30
2022-09-13T06:03:14.070Z,22.30
2022-09-13T06:05:40.558Z,22.30
2022-09-13T06:08:07.045Z,22.30
2022-09-13T06:10:33.518Z,22.30
2022-09-13T06:13:00.008Z,22.30
2022-09-13T06:15:26.473Z,22.20
2022-09-13T06:17:52.945Z,22.30
2022-09-13T06:20:19.422Z,22.30
2022-09-13T06:28:27.482Z,22.30
2022-09-13T06:30:56.059Z,22.30
2022-09-13T06:33:22.562Z,22.30
2022-09-13T06:35:49.052Z,22.30
2022-09-13T06:38:15.546Z,22.30
2022-09-13T06:40:42.023Z,22.30
2022-09-13T06:43:08.540Z,22.30
2022-09-13T06:45:35.008Z,22.30
2022-09-13T06:48:01.469Z,22.30
2022-09-13T06:50:27.933Z,22.30
2022-09-13T06:52:54.410Z,22.30
2022-09-13T06:55:20.879Z,22.30
2022-09-13T06:57:56.281Z,22.30
2022-09-13T07:00:26.119Z,22.30
2022-09-13T07:03:08.318Z,22.30
2022-09-13T07:05:34.798Z,22.30
2022-09-13T07:08:01.280Z,22.30
2022-09-13T07:10:32.118Z,22.30
2022-09-13T07:13:02.120Z,22.30
2022-09-13T07:15:28.586Z,22.30
2022-09-13T07:17:55.050Z,22.30
2022-09-13T07:20:26.120Z,22.30
2022-09-13T07:22:52.585Z,22.30
2022-09-13T07:25:19.057Z,22.30
2022-09-13T07:27:45.530Z,22.30
2022-09-13T07:30:14.143Z,22.30
2022-09-13T07:32:40.607Z,22.30
2022-09-13T07:35:07.078Z,22.30
2022-09-13T07:37:33.544Z,22.30
2022-09-13T07:40:02.247Z,22.20
2022-09-13T07:42:28.771Z,22.20
2022-09-13T07:44:55.248Z,22.20
2022-09-13T07:47:21.716Z,22.20
2022-09-13T07:49:48.176Z,22.20
2022-09-13T07:52:14.636Z,22.20
2022-09-13T07:54:44.144Z,22.20
2022-09-13T07:57:10.613Z,22.20
2022-09-13T07:59:37.110Z,22.20
2022-09-13T08:02:08.378Z,22.20
2022-09-13T08:04:36.511Z,22.20
2022-09-13T08:07:03.144Z,22.20
2022-09-13T08:09:29.644Z,22.20
2022-09-13T08:11:56.130Z,22.20
2022-09-13T08:14:22.625Z,22.20
2022-09-13T08:16:49.204Z,22.30
2022-09-13T08:19:15.715Z,22.20
2022-09-13T08:21:44.185Z,22.30
2022-09-13T08:24:14.345Z,22.20
2022-09-13T08:26:40.829Z,22.30
2022-09-13T08:29:08.151Z,22.30
2022-09-13T08:31:34.649Z,22.30
2022-09-13T08:34:01.136Z,22.30
2022-09-13T08:36:27.625Z,22.20
2022-09-13T08:38:54.096Z,22.20
2022-09-13T08:41:20.584Z,22.30
2022-09-13T08:43:47.055Z,22.30
2022-09-13T08:46:13.583Z,22.30
2022-09-13T08:48:40.048Z,22.30
2022-09-13T08:51:08.198Z,22.30
2022-09-13T08:53:44.271Z,22.30
2022-09-13T08:56:10.753Z,22.30
2022-09-13T08:58:37.232Z,22.30
2022-09-13T09:01:03.781Z,22.30
2022-09-13T09:03:32.172Z,22.30
2022-09-13T09:05:58.659Z,22.30
2022-09-13T09:08:31.044Z,22.30
2022-09-13T09:10:57.519Z,22.30
2022-09-13T09:13:24.662Z,22.30
2022-09-13T09:15:56.291Z,22.30
2022-09-13T09:18:22.852Z,22.30
2022-09-13T09:23:39.310Z,22.30
2022-09-13T09:26:05.805Z,22.30
2022-09-13T09:28:32.281Z,22.30
2022-09-13T09:30:58.832Z,22.30
2022-09-13T09:33:25.345Z,22.30
2022-09-13T09:35:51.837Z,22.30
2022-09-13T09:38:18.321Z,22.30
2022-09-13T09:40:44.787Z,22.30
2022-09-13T09:43:14.200Z,22.40
2022-09-13T09:45:40.697Z,22.30
2022-09-13T09:48:07.226Z,22.40
2022-09-13T09:50:38.262Z,22.30
2022-09-13T09:53:04.719Z,22.40
2022-09-13T09:55:31.204Z,22.40
2022-09-13T09:57:57.675Z,22.30
2022-09-13T10:00:26.256Z,22.40
2022-09-13T10:02:52.720Z,22.40
2022-09-13T10:08:09.640Z,22.40
2022-09-13T10:10:36.142Z,22.40
2022-09-13T10:13:08.387Z,22.40
2022-09-13T10:15:38.260Z,22.40
2022-09-13T10:18:26.392Z,22.40
2022-09-13T10:20:56.288Z,22.40
2022-09-13T10:23:22.769Z,22.40
2022-09-13T10:25:49.273Z,22.40
2022-09-13T10:28:15.735Z,22.40
2022-09-13T10:30:42.279Z,22.40
2022-09-13T10:33:08.755Z,22.40
2022-09-13T10:35:35.215Z,22.40
2022-09-13T10:38:01.693Z,22.50
2022-09-13T10:40:28.230Z,22.40
2022-09-13T10:42:54.718Z,22.50
2022-09-13T10:45:21.212Z,22.50
2022-09-13T10:47:47.686Z,22.40
2022-09-13T10:50:20.291Z,22.50
2022-09-13T10:52:46.764Z,22.50
2022-09-13T10:55:13.271Z,22.50
2022-09-13T10:57:39.736Z,22.50
2022-09-13T11:00:06.254Z,22.50
2022-09-13T11:02:44.464Z,22.50
2022-09-13T11:05:10.952Z,22.50
2022-09-13T11:07:37.445Z,22.50
2022-09-13T11:10:08.327Z,22.50
2022-09-13T11:12:34.822Z,22.50
2022-09-13T11:15:01.323Z,22.50
2022-09-13T11:17:27.793Z,22.50
2022-09-13T11:19:57.105Z,22.50
2022-09-13T11:22:23.845Z,22.60
2022-09-13T11:24:50.306Z,22.60
2022-09-13T11:27:16.779Z,22.60
2022-09-13T11:29:43.263Z,22.60
2022-09-13T11:32:14.345Z,22.60
2022-09-13T11:34:40.820Z,22.60
2022-09-13T11:37:07.328Z,22.60
2022-09-13T11:39:33.811Z,22.60
2022-09-13T11:42:00.292Z,22.60
2022-09-13T11:44:32.532Z,22.60
2022-09-13T11:46:59.010Z,22.60
2022-09-13T11:49:26.319Z,22.60
2022-09-13T11:51:52.806Z,22.60
2022-09-13T11:54:19.282Z,22.60
2022-09-13T11:56:45.756Z,22.60
2022-09-13T11:59:15.484Z,22.60
2022-09-13T12:01:42.259Z,22.60
2022-09-13T12:04:08.723Z,22.60
2022-09-13T12:06:35.191Z,22.60
2022-09-13T12:09:01.655Z,22.60
2022-09-13T12:11:28.121Z,22.70
2022-09-13T12:13:56.337Z,22.60
2022-09-13T12:16:22.803Z,22.70
2022-09-13T12:18:49.296Z,22.70
2022-09-13T12:21:15.786Z,22.70
2022-09-13T12:23:42.289Z,22.70
2022-09-13T12:26:08.756Z,22.70
2022-09-13T12:28:35.214Z,22.70
2022-09-13T12:31:08.392Z,22.70
2022-09-13T12:33:38.615Z,22.70
2022-09-13T12:36:05.153Z,22.70
2022-09-13T12:38:31.880Z,22.70
2022-09-13T12:40:58.417Z,22.70
2022-09-13T12:43:24.884Z,22.70
2022-09-13T12:45:51.409Z,22.70
2022-09-13T12:48:17.889Z,22.70
2022-09-13T12:50:44.765Z,22.70
2022-09-13T12:53:11.345Z,22.70
2022-09-13T12:55:53.078Z,22.70
2022-09-13T12:58:19.554Z,22.70
2022-09-13T13:00:46.090Z,22.70
2022-09-13T13:03:12.596Z,22.70
2022-09-13T13:05:39.089Z,22.70
2022-09-13T13:08:05.577Z,22.70
2022-09-13T13:10:32.085Z,22.70
2022-09-13T13:12:58.557Z,22.80
2022-09-13T13:15:25.078Z,22.70
2022-09-13T13:17:56.529Z,22.70
2022-09-13T13:20:22.996Z,22.70
2022-09-13T13:22:49.483Z,22.80
2022-09-13T13:25:15.971Z,22.80
2022-09-13T13:27:48.037Z,22.80
2022-09-13T13:30:14.980Z,22.80
2022-09-13T13:32:44.436Z,22.80
2022-09-13T13:35:10.918Z,22.80
2022-09-13T13:37:37.412Z,22.80
2022-09-13T13:40:03.997Z,22.80
2022-09-13T13:42:30.575Z,22.80
2022-09-13T13:45:08.575Z,22.80
2022-09-13T13:47:35.039Z,22.80
2022-09-13T13:50:01.548Z,22.80
2022-09-13T13:52:28.296Z,22.80
2022-09-13T13:54:54.761Z,22.80
2022-09-13T13:57:21.238Z,22.80
2022-09-13T13:59:47.705Z,22.80
2022-09-13T14:02:14.183Z,22.80
2022-09-13T14:04:40.765Z,22.80
2022-09-13T14:07:18.950Z,22.80
2022-09-13T14:09:46.130Z,22.80
2022-09-13T14:12:12.588Z,22.80
2022-09-13T14:14:39.054Z,22.80
2022-09-13T14:17:08.538Z,22.80
2022-09-13T14:19:38.520Z,22.80
2022-09-13T14:22:05.008Z,22.80
2022-09-13T14:24:31.478Z,22.80
2022-09-13T14:29:48.411Z,22.80
2022-09-13T14:32:14.894Z,22.80
2022-09-13T14:34:41.377Z,22.80
2022-09-13T14:37:07.872Z,22.80
2022-09-13T14:39:34.351Z,22.80
2022-09-13T14:42:02.492Z,22.80
2022-09-13T14:44:29.321Z,22.80
2022-09-13T14:46:56.225Z,22.80
2022-09-13T14:49:26.593Z,22.80
2022-09-13T14:51:53.083Z,22.80
2022-09-13T14:54:19.550Z,22.80
2022-09-13T14:56:46.020Z,22.90
2022-09-13T14:59:20.599Z,22.80
2022-09-13T15:01:50.515Z,22.90
2022-09-13T15:04:17.039Z,22.90
2022-09-13T15:06:43.541Z,22.90
2022-09-13T15:09:10.019Z,22.90
2022-09-13T15:11:36.493Z,22.90
2022-09-13T15:14:02.985Z,22.90
2022-09-13T15:16:29.519Z,22.90
2022-09-13T15:18:56.053Z,22.90
2022-09-13T15:21:22.525Z,22.90
2022-09-13T15:23:49.187Z,22.90
2022-09-13T15:26:20.526Z,22.90
2022-09-13T15:28:47.004Z,22.90
2022-09-13T15:31:13.539Z,22.90
2022-09-13T15:33:40.016Z,22.90
2022-09-13T15:36:06.505Z,22.90
2022-09-13T15:38:32.990Z,22.80
2022-09-13T15:41:02.545Z,22.90
2022-09-13T15:43:28.998Z,22.90
2022-09-13T15:45:55.502Z,22.90
2022-09-13T15:48:21.971Z,22.90
2022-09-13T15:50:48.455Z,22.90
2022-09-13T15:53:14.935Z,22.90
2022-09-13T15:55:41.439Z,22.90
2022-09-13T15:58:07.901Z,22.90
2022-09-13T16:00:34.457Z,22.90
2022-09-13T16:03:00.981Z,22.90
2022-09-13T16:05:27.476Z,22.90
2022-09-13T16:07:53.960Z,22.90
2022-09-13T16:10:20.454Z,22.90
2022-09-13T16:12:50.670Z,22.90
2022-09-13T16:15:17.176Z,22.90
2022-09-13T16:17:44.522Z,22.90
2022-09-13T16:20:14.676Z,22.90
2022-09-13T16:22:41.170Z,22.90
2022-09-13T16:25:07.644Z,22.90
2022-09-13T16:27:38.590Z,22.90
2022-09-13T16:30:05.054Z,22.90
2022-09-13T16:32:31.517Z,22.90
2022-09-13T16:34:57.991Z,22.90
2022-09-13T16:37:24.464Z,22.90
2022-09-13T16:39:50.990Z,22.90
2022-09-13T16:42:17.630Z,22.90
2022-09-13T16:44:44.123Z,22.90
2022-09-13T16:47:14.600Z,22.90
2022-09-13T16:49:41.068Z,22.90
2022-09-13T16:52:07.539Z,22.90
2022-09-13T16:54:34.002Z,22.90
2022-09-13T16:57:00.489Z,22.90
2022-09-13T16:59:26.975Z,22.90
2022-09-13T17:01:53.602Z,22.90
2022-09-13T17:04:20.148Z,22.90
2022-09-13T17:06:46.636Z,22.90
2022-09-13T17:09:13.100Z,22.90
2022-09-13T17:11:39.569Z,22.90
2022-09-13T17:14:06.048Z,22.90
2022-09-13T17:16:32.568Z,22.90
2022-09-13T17:19:02.778Z,22.90
2022-09-13T17:21:29.294Z,22.90
2022-09-13T17:23:56.575Z,22.90
2022-09-13T17:26:23.083Z,22.90
2022-09-13T17:28:50.581Z,22.90
2022-09-13T17:31:17.110Z,22.90
2022-09-13T17:33:44.582Z,22.90
2022-09-13T17:36:11.072Z,22.90
2022-09-13T17:38:37.567Z,22.90
2022-09-13T17:41:04.065Z,22.90
2022-09-13T17:43:30.515Z,22.80
2022-09-13T17:45:57.003Z,22.90
2022-09-13T17:48:23.466Z,22.90
2022-09-13T17:50:49.934Z,22.90
2022-09-13T17:53:16.408Z,22.90
2022-09-13T17:55:42.884Z,22.90
2022-09-13T17:58:09.360Z,22.80
2022-09-13T18:00:38.655Z,22.90
2022-09-13T18:03:05.163Z,22.90
2022-09-13T18:05:31.728Z,22.80
2022-09-13T18:07:58.202Z,22.90
2022-09-13T18:10:53.078Z,22.80
2022-09-13T18:13:13.139Z,22.80
2022-09-13T18:15:39.715Z,22.90
2022-09-13T18:18:06.226Z,22.90
2022-09-13T18:20:33.826Z,22.90
2022-09-13T18:23:01.786Z,22.80
2022-09-13T18:28:18.737Z,22.80
2022-09-13T18:30:45.250Z,22.90
2022-09-13T18:33:11.751Z,22.80
2022-09-13T18:35:38.238Z,22.80
2022-09-13T18:38:04.717Z,22.90
2022-09-13T18:40:32.743Z,22.80
2022-09-13T18:42:59.246Z,22.80
2022-09-13T18:45:25.749Z,22.90
2022-09-13T18:47:52.204Z,22.80
2022-09-13T18:50:20.111Z,22.80
2022-09-13T18:52:46.690Z,22.80
2022-09-13T18:55:13.183Z,22.80
2022-09-13T18:57:40.775Z,22.80
2022-09-13T19:00:07.241Z,22.80
2022-09-13T19:02:33.833Z,22.80
2022-09-13T19:05:03.303Z,22.80
2022-09-13T19:07:31.789Z,22.80
2022-09-13T19:09:58.265Z,22.80
2022-09-13T19:12:26.731Z,22.80
2022-09-13T19:14:53.213Z,22.80
2022-09-13T19:17:19.680Z,22.80
2022-09-13T19:19:46.153Z,22.90
2022-09-13T19:22:12.639Z,22.80
2022-09-13T19:24:39.124Z,22.80
2022-09-13T19:27:05.606Z,22.80
2022-09-13T19:29:32.077Z,22.80
2022-09-13T19:32:02.758Z,22.80
2022-09-13T19:34:29.233Z,22.80
2022-09-13T19:36:55.715Z,22.80
2022-09-13T19:39:25.831Z,22.80
2022-09-13T19:41:54.994Z,22.80
2022-09-13T19:44:21.477Z,22.80
2022-09-13T19:46:48.043Z,22.80
2022-09-13T19:49:14.550Z,22.80
2022-09-13T19:51:41.034Z,22.80
2022-09-13T19:54:07.506Z,22.80
2022-09-13T19:56:38.887Z,22.80
2022-09-13T19:59:05.367Z,22.80
2022-09-13T20:01:31.915Z,22.70
2022-09-13T20:04:02.770Z,22.70
2022-09-13T20:06:29.204Z,22.80
2022-09-13T20:08:55.680Z,22.70
2022-09-13T20:11:22.144Z,22.80
2022-09-13T20:13:48.654Z,22.80
2022-09-13T20:16:15.446Z,22.80
2022-09-13T20:18:44.759Z,22.70
2022-09-13T20:21:11.219Z,22.70
2022-09-13T20:23:37.679Z,22.80
2022-09-13T20:26:04.195Z,22.70
2022-09-13T20:28:30.677Z,22.80
2022-09-13T20:31:14.996Z,22.80
2022-09-13T20:33:41.510Z,22.70
2022-09-13T20:39:03.613Z,22.70
2022-09-13T20:41:30.295Z,22.70
2022-09-13T20:43:56.780Z,22.70
2022-09-13T20:46:23.298Z,22.70
2022-09-13T20:48:49.830Z,22.70
2022-09-13T20:51:20.924Z,22.70
2022-09-13T20:53:47.437Z,22.70
2022-09-13T20:56:13.924Z,22.70
2022-09-13T20:58:40.404Z,22.70
2022-09-13T21:01:06.937Z,22.70
2022-09-13T21:03:33.475Z,22.70
2022-09-13T21:05:59.944Z,22.70
2022-09-13T21:08:26.410Z,22.70
2022-09-13T21:10:52.876Z,22.70
2022-09-13T21:13:20.808Z,22.70
2022-09-13T21:15:47.259Z,22.70
2022-09-13T21:18:13.730Z,22.70
2022-09-13T21:20:40.185Z,22.70
2022-09-13T21:23:08.815Z,22.70
2022-09-13T21:25:39.015Z,22.70
2022-09-13T21:28:05.478Z,22.70
2022-09-13T21:30:31.976Z,22.70
2022-09-13T21:32:58.446Z,22.70
2022-09-13T21:35:24.931Z,22.70
2022-09-13T21:37:51.424Z,22.70
2022-09-13T21:40:17.967Z,22.70
2022-09-13T21:42:44.458Z,22.70
2022-09-13T21:45:10.933Z,22.70
2022-09-13T21:47:37.408Z,22.70
2022-09-13T21:50:20.900Z,22.70
2022-09-13T21:52:47.382Z,22.70
2022-09-13T21:55:14.815Z,22.70
2022-09-13T21:57:41.304Z,22.70
2022-09-13T22:00:07.771Z,22.70
2022-09-13T22:02:38.927Z,22.70
2022-09-13T22:05:08.975Z,22.70
2022-09-13T22:07:35.459Z,22.70
2022-09-13T22:10:02.818Z,22.70
2022-09-13T22:12:29.294Z,22.70
2022-09-13T22:14:56.840Z,22.70
2022-09-13T22:20:13.414Z,22.70
2022-09-13T22:22:39.897Z,22.70
2022-09-13T22:25:06.372Z,22.60
2022-09-13T22:27:32.854Z,22.60
2022-09-13T22:30:09.067Z,22.60
2022-09-13T22:32:35.552Z,22.60
2022-09-13T22:35:02.830Z,22.60
2022-09-13T22:37:29.336Z,22.60
2022-09-13T22:39:55.829Z,22.60
2022-09-13T22:42:22.331Z,22.60
2022-09-13T22:44:48.814Z,22.60
2022-09-13T22:47:15.290Z,22.60
2022-09-13T22:49:41.768Z,22.60
2022-09-13T22:52:08.233Z,22.60
2022-09-13T22:54:34.715Z,22.60
2022-09-13T22:57:01.182Z,22.60
2022-09-13T22:59:27.662Z,22.60
2022-09-13T23:01:54.133Z,22.60
2022-09-13T23:04:20.608Z,22.60
2022-09-13T23:06:51.096Z,22.60
2022-09-13T23:09:17.562Z,22.60
2022-09-13T23:11:50.983Z,22.60
2022-09-13T23:14:17.518Z,22.60
2022-09-13T23:16:44.927Z,22.60
2022-09-13T23:19:11.427Z,22.60
2022-09-13T23:21:37.876Z,22.60
2022-09-13T23:24:08.933Z,22.60
2022-09-13T23:26:35.387Z,22.60
2022-09-13T23:29:01.870Z,22.60
2022-09-13T23:31:32.998Z,22.60
2022-09-13T23:33:59.475Z,22.60
2022-09-13T23:36:25.948Z,22.60
2022-09-13T23:38:52.473Z,22.60
2022-09-13T23:41:18.938Z,22.60
2022-09-13T23:43:45.405Z,22.60
2022-09-13T23:46:11.931Z,22.60
2022-09-13T23:48:38.478Z,22.50
2022-09-13T23:51:08.936Z,22.60
2022-09-13T23:53:39.142Z,22.60
2022-09-13T23:56:05.599Z,22.60
2022-09-13T23:58:32.910Z,22.60
